sensor_id;sensor_type;location;lat;lon;timestamp;pressure;altitude;pressure_sealevel;temperature;humidity
83635;BME280;73596;49.482;11.238;2023-12-20T00:02:20;97974.44;;;1.85;93.09
83635;BME280;73596;49.482;11.238;2023-12-20T00:04:45;97972.78;;;1.84;93.38
83635;BME280;73596;49.482;11.238;2023-12-20T00:07:11;97970.25;;;1.84;93.00
83635;BME280;73596;49.482;11.238;2023-12-20T00:09:36;97969.34;;;1.85;92.88
83635;BME280;73596;49.482;11.238;2023-12-20T00:12:01;97964.19;;;1.87;93.54
83635;BME280;73596;49.482;11.238;2023-12-20T00:14:27;97971.69;;;1.90;94.09
83635;BME280;73596;49.482;11.238;2023-12-20T00:16:52;97960.75;;;1.88;93.59
83635;BME280;73596;49.482;11.238;2023-12-20T00:19:17;97962.78;;;2.02;95.53
83635;BME280;73596;49.482;11.238;2023-12-20T00:21:42;97965.22;;;2.05;95.60
83635;BME280;73596;49.482;11.238;2023-12-20T00:24:08;97959.22;;;2.06;95.96
83635;BME280;73596;49.482;11.238;2023-12-20T00:26:33;97955.72;;;2.08;96.24
83635;BME280;73596;49.482;11.238;2023-12-20T00:28:59;97949.84;;;2.06;95.60
83635;BME280;73596;49.482;11.238;2023-12-20T00:31:24;97937.31;;;2.02;95.63
83635;BME280;73596;49.482;11.238;2023-12-20T00:33:49;97933.91;;;2.01;94.93
83635;BME280;73596;49.482;11.238;2023-12-20T00:36:15;97932.25;;;2.00;95.13
83635;BME280;73596;49.482;11.238;2023-12-20T00:38:40;97928.75;;;2.03;95.40
83635;BME280;73596;49.482;11.238;2023-12-20T00:41:05;97927.16;;;2.00;95.19
83635;BME280;73596;49.482;11.238;2023-12-20T00:43:31;97921.19;;;2.01;95.11
83635;BME280;73596;49.482;11.238;2023-12-20T00:45:57;97930.03;;;2.13;96.51
83635;BME280;73596;49.482;11.238;2023-12-20T00:48:22;97919.63;;;2.39;97.29
83635;BME280;73596;49.482;11.238;2023-12-20T00:50:47;97916.97;;;2.42;97.79
83635;BME280;73596;49.482;11.238;2023-12-20T00:53:13;97911.81;;;2.43;97.87
83635;BME280;73596;49.482;11.238;2023-12-20T00:55:38;97913.59;;;2.41;97.89
83635;BME280;73596;49.482;11.238;2023-12-20T00:58:03;97906.03;;;2.40;97.95
83635;BME280;73596;49.482;11.238;2023-12-20T01:00:29;97909.22;;;2.45;97.93
83635;BME280;73596;49.482;11.238;2023-12-20T01:02:54;97909.06;;;2.48;98.33
83635;BME280;73596;49.482;11.238;2023-12-20T01:05:19;97909.84;;;2.50;98.18
83635;BME280;73596;49.482;11.238;2023-12-20T01:07:48;97903.38;;;2.62;98.34
83635;BME280;73596;49.482;11.238;2023-12-20T01:10:13;97899.84;;;2.66;99.04
83635;BME280;73596;49.482;11.238;2023-12-20T01:12:38;97903.97;;;2.68;98.89
83635;BME280;73596;49.482;11.238;2023-12-20T01:15:04;97906.25;;;2.74;99.43
83635;BME280;73596;49.482;11.238;2023-12-20T01:17:30;97900.81;;;2.82;99.53
83635;BME280;73596;49.482;11.238;2023-12-20T01:19:55;97903.38;;;2.82;99.20
83635;BME280;73596;49.482;11.238;2023-12-20T01:22:20;97901.81;;;2.98;99.57
83635;BME280;73596;49.482;11.238;2023-12-20T01:24:45;97907.81;;;2.97;99.58
83635;BME280;73596;49.482;11.238;2023-12-20T01:27:11;97905.34;;;2.95;99.48
83635;BME280;73596;49.482;11.238;2023-12-20T01:29:36;97909.56;;;3.15;99.93
83635;BME280;73596;49.482;11.238;2023-12-20T01:32:01;97905.50;;;3.11;99.52
83635;BME280;73596;49.482;11.238;2023-12-20T01:34:27;97899.44;;;3.13;99.98
83635;BME280;73596;49.482;11.238;2023-12-20T01:36:52;97894.25;;;3.15;100.00
83635;BME280;73596;49.482;11.238;2023-12-20T01:39:17;97899.84;;;3.23;99.54
83635;BME280;73596;49.482;11.238;2023-12-20T01:41:43;97887.56;;;3.12;99.44
83635;BME280;73596;49.482;11.238;2023-12-20T01:44:08;97899.16;;;3.19;99.34
83635;BME280;73596;49.482;11.238;2023-12-20T01:46:34;97885.16;;;3.28;99.87
83635;BME280;73596;49.482;11.238;2023-12-20T01:48:59;97887.56;;;3.31;99.76
83635;BME280;73596;49.482;11.238;2023-12-20T01:51:24;97882.38;;;3.33;99.69
83635;BME280;73596;49.482;11.238;2023-12-20T01:53:52;97874.66;;;3.34;99.80
83635;BME280;73596;49.482;11.238;2023-12-20T01:56:17;97877.38;;;3.31;99.40
83635;BME280;73596;49.482;11.238;2023-12-20T01:58:46;97875.13;;;3.42;99.80
83635;BME280;73596;49.482;11.238;2023-12-20T02:01:12;97876.66;;;3.28;99.50
83635;BME280;73596;49.482;11.238;2023-12-20T02:03:40;97880.72;;;3.32;99.54
83635;BME280;73596;49.482;11.238;2023-12-20T02:06:05;97878.03;;;3.53;99.61
83635;BME280;73596;49.482;11.238;2023-12-20T02:08:31;97874.91;;;3.47;99.20
83635;BME280;73596;49.482;11.238;2023-12-20T02:10:56;97874.72;;;3.51;99.16
83635;BME280;73596;49.482;11.238;2023-12-20T02:13:22;97878.34;;;3.64;99.16
83635;BME280;73596;49.482;11.238;2023-12-20T02:15:47;97871.81;;;3.59;99.26
83635;BME280;73596;49.482;11.238;2023-12-20T02:18:12;97876.22;;;3.74;99.32
83635;BME280;73596;49.482;11.238;2023-12-20T02:20:40;97863.81;;;3.66;99.06
83635;BME280;73596;49.482;11.238;2023-12-20T02:23:06;97859.59;;;3.65;99.22
83635;BME280;73596;49.482;11.238;2023-12-20T02:25:31;97856.34;;;3.62;98.60
83635;BME280;73596;49.482;11.238;2023-12-20T02:27:56;97859.66;;;3.64;98.78
83635;BME280;73596;49.482;11.238;2023-12-20T02:30:21;97867.53;;;3.59;98.26
83635;BME280;73596;49.482;11.238;2023-12-20T02:32:48;97868.66;;;3.54;98.40
83635;BME280;73596;49.482;11.238;2023-12-20T02:35:14;97866.91;;;3.54;97.81
83635;BME280;73596;49.482;11.238;2023-12-20T02:37:40;97865.19;;;3.55;98.22
83635;BME280;73596;49.482;11.238;2023-12-20T02:40:05;97860.22;;;3.52;97.84
83635;BME280;73596;49.482;11.238;2023-12-20T02:42:31;97859.56;;;3.48;98.01
83635;BME280;73596;49.482;11.238;2023-12-20T02:44:56;97857.00;;;3.48;98.01
83635;BME280;73596;49.482;11.238;2023-12-20T02:47:21;97858.56;;;3.51;97.72
83635;BME280;73596;49.482;11.238;2023-12-20T02:49:46;97867.81;;;3.53;97.38
83635;BME280;73596;49.482;11.238;2023-12-20T02:52:12;97866.16;;;3.52;97.28
83635;BME280;73596;49.482;11.238;2023-12-20T02:54:37;97864.06;;;3.60;96.62
83635;BME280;73596;49.482;11.238;2023-12-20T02:57:02;97872.09;;;3.53;96.91
83635;BME280;73596;49.482;11.238;2023-12-20T02:59:28;97877.28;;;3.51;96.70
83635;BME280;73596;49.482;11.238;2023-12-20T03:01:53;97876.72;;;3.45;96.42
83635;BME280;73596;49.482;11.238;2023-12-20T03:04:19;97866.63;;;3.42;96.37
83635;BME280;73596;49.482;11.238;2023-12-20T03:06:46;97878.69;;;3.57;96.29
83635;BME280;73596;49.482;11.238;2023-12-20T03:09:11;97868.78;;;3.51;95.85
83635;BME280;73596;49.482;11.238;2023-12-20T03:11:37;97873.91;;;3.51;94.93
83635;BME280;73596;49.482;11.238;2023-12-20T03:14:02;97867.22;;;3.48;95.02
83635;BME280;73596;49.482;11.238;2023-12-20T03:16:27;97865.66;;;3.44;95.38
83635;BME280;73596;49.482;11.238;2023-12-20T03:18:53;97868.56;;;3.37;95.33
83635;BME280;73596;49.482;11.238;2023-12-20T03:21:18;97863.97;;;3.45;95.22
83635;BME280;73596;49.482;11.238;2023-12-20T03:23:44;97862.38;;;3.42;94.80
83635;BME280;73596;49.482;11.238;2023-12-20T03:26:09;97865.34;;;3.33;95.18
83635;BME280;73596;49.482;11.238;2023-12-20T03:28:36;97862.31;;;3.25;95.37
83635;BME280;73596;49.482;11.238;2023-12-20T03:31:02;97866.59;;;3.25;96.03
83635;BME280;73596;49.482;11.238;2023-12-20T03:33:28;97874.13;;;3.28;95.89
83635;BME280;73596;49.482;11.238;2023-12-20T03:35:53;97870.09;;;3.22;96.46
83635;BME280;73596;49.482;11.238;2023-12-20T03:38:18;97876.13;;;3.21;96.62
83635;BME280;73596;49.482;11.238;2023-12-20T03:40:44;97877.84;;;3.20;96.65
83635;BME280;73596;49.482;11.238;2023-12-20T03:43:09;97866.88;;;3.18;96.44
83635;BME280;73596;49.482;11.238;2023-12-20T03:45:34;97879.34;;;3.25;96.79
83635;BME280;73596;49.482;11.238;2023-12-20T03:48:00;97880.31;;;3.22;96.67
83635;BME280;73596;49.482;11.238;2023-12-20T03:50:26;97874.31;;;3.23;96.50
83635;BME280;73596;49.482;11.238;2023-12-20T03:52:51;97873.63;;;3.19;96.38
83635;BME280;73596;49.482;11.238;2023-12-20T03:55:17;97869.56;;;3.15;96.49
83635;BME280;73596;49.482;11.238;2023-12-20T03:57:42;97879.69;;;3.17;96.69
83635;BME280;73596;49.482;11.238;2023-12-20T04:00:08;97879.78;;;3.15;96.67
83635;BME280;73596;49.482;11.238;2023-12-20T04:02:36;97886.69;;;3.13;96.65
83635;BME280;73596;49.482;11.238;2023-12-20T04:05:01;97880.78;;;3.11;96.73
83635;BME280;73596;49.482;11.238;2023-12-20T04:07:26;97883.16;;;3.16;96.73
83635;BME280;73596;49.482;11.238;2023-12-20T04:09:51;97884.03;;;3.15;96.87
83635;BME280;73596;49.482;11.238;2023-12-20T04:12:17;97888.09;;;3.19;96.57
83635;BME280;73596;49.482;11.238;2023-12-20T04:14:42;97878.09;;;3.14;96.52
83635;BME280;73596;49.482;11.238;2023-12-20T04:17:07;97887.56;;;3.12;96.56
83635;BME280;73596;49.482;11.238;2023-12-20T04:19:32;97882.59;;;3.09;96.81
83635;BME280;73596;49.482;11.238;2023-12-20T04:21:57;97889.41;;;3.09;96.91
83635;BME280;73596;49.482;11.238;2023-12-20T04:24:23;97870.03;;;3.05;96.88
83635;BME280;73596;49.482;11.238;2023-12-20T04:26:48;97877.22;;;3.15;96.63
83635;BME280;73596;49.482;11.238;2023-12-20T04:29:13;97875.78;;;3.10;96.31
83635;BME280;73596;49.482;11.238;2023-12-20T04:31:38;97884.38;;;3.07;96.68
83635;BME280;73596;49.482;11.238;2023-12-20T04:34:04;97882.72;;;3.06;96.83
83635;BME280;73596;49.482;11.238;2023-12-20T04:36:29;97874.09;;;3.09;96.88
83635;BME280;73596;49.482;11.238;2023-12-20T04:38:55;97869.91;;;3.08;96.80
83635;BME280;73596;49.482;11.238;2023-12-20T04:41:20;97870.75;;;3.08;96.79
83635;BME280;73596;49.482;11.238;2023-12-20T04:43:45;97884.25;;;3.10;96.65
83635;BME280;73596;49.482;11.238;2023-12-20T04:46:10;97880.13;;;3.08;96.73
83635;BME280;73596;49.482;11.238;2023-12-20T04:48:36;97880.13;;;3.08;96.74
83635;BME280;73596;49.482;11.238;2023-12-20T04:51:01;97876.66;;;3.09;96.71
83635;BME280;73596;49.482;11.238;2023-12-20T04:53:27;97880.94;;;3.08;96.76
83635;BME280;73596;49.482;11.238;2023-12-20T04:55:52;97881.63;;;3.12;96.71
83635;BME280;73596;49.482;11.238;2023-12-20T04:58:18;97882.66;;;3.08;96.68
83635;BME280;73596;49.482;11.238;2023-12-20T05:00:43;97884.38;;;3.07;96.73
83635;BME280;73596;49.482;11.238;2023-12-20T05:03:09;97882.72;;;3.06;97.11
83635;BME280;73596;49.482;11.238;2023-12-20T05:05:34;97891.97;;;3.09;96.93
83635;BME280;73596;49.482;11.238;2023-12-20T05:08:00;97898.94;;;3.05;96.71
83635;BME280;73596;49.482;11.238;2023-12-20T05:10:25;97904.03;;;3.05;97.34
83635;BME280;73596;49.482;11.238;2023-12-20T05:12:52;97898.94;;;3.05;96.99
83635;BME280;73596;49.482;11.238;2023-12-20T05:15:17;97903.00;;;3.09;97.32
83635;BME280;73596;49.482;11.238;2023-12-20T05:17:42;97906.59;;;3.05;96.99
83635;BME280;73596;49.482;11.238;2023-12-20T05:20:08;97910.72;;;3.08;97.07
83635;BME280;73596;49.482;11.238;2023-12-20T05:22:33;97915.09;;;3.06;96.81
83635;BME280;73596;49.482;11.238;2023-12-20T05:24:58;97930.53;;;3.03;97.04
83635;BME280;73596;49.482;11.238;2023-12-20T05:27:24;97923.91;;;3.17;97.39
83635;BME280;73596;49.482;11.238;2023-12-20T05:29:49;97918.25;;;3.11;96.76
83635;BME280;73596;49.482;11.238;2023-12-20T05:32:16;97921.78;;;3.08;96.75
83635;BME280;73596;49.482;11.238;2023-12-20T05:34:42;97931.28;;;3.05;97.23
83635;BME280;73596;49.482;11.238;2023-12-20T05:37:07;97931.16;;;3.08;96.70
83635;BME280;73596;49.482;11.238;2023-12-20T05:39:32;97928.66;;;3.06;96.67
83635;BME280;73596;49.482;11.238;2023-12-20T05:41:57;97938.09;;;3.04;97.27
83635;BME280;73596;49.482;11.238;2023-12-20T05:44:23;97936.38;;;3.05;97.12
83635;BME280;73596;49.482;11.238;2023-12-20T05:46:48;97933.91;;;3.03;97.07
83635;BME280;73596;49.482;11.238;2023-12-20T05:49:13;97938.16;;;3.03;97.18
83635;BME280;73596;49.482;11.238;2023-12-20T05:51:39;97935.63;;;3.03;97.13
83635;BME280;73596;49.482;11.238;2023-12-20T05:54:04;97927.97;;;3.03;97.39
83635;BME280;73596;49.482;11.238;2023-12-20T05:56:29;97935.66;;;3.01;96.98
83635;BME280;73596;49.482;11.238;2023-12-20T05:58:54;97945.81;;;3.03;96.92
83635;BME280;73596;49.482;11.238;2023-12-20T06:01:20;97944.88;;;3.05;96.98
83635;BME280;73596;49.482;11.238;2023-12-20T06:03:45;97937.91;;;2.89;96.51
83635;BME280;73596;49.482;11.238;2023-12-20T06:06:13;97938.25;;;2.81;96.39
83635;BME280;73596;49.482;11.238;2023-12-20T06:08:39;97945.78;;;2.64;96.50
83635;BME280;73596;49.482;11.238;2023-12-20T06:11:04;97940.34;;;2.51;96.93
83635;BME280;73596;49.482;11.238;2023-12-20T06:13:30;97949.53;;;2.55;97.22
83635;BME280;73596;49.482;11.238;2023-12-20T06:15:56;97945.44;;;2.51;97.54
83635;BME280;73596;49.482;11.238;2023-12-20T06:18:21;97950.78;;;2.45;97.80
83635;BME280;73596;49.482;11.238;2023-12-20T06:20:47;97951.38;;;2.52;98.03
83635;BME280;73596;49.482;11.238;2023-12-20T06:23:12;97958.44;;;2.45;98.31
83635;BME280;73596;49.482;11.238;2023-12-20T06:25:38;97970.38;;;2.45;98.30
83635;BME280;73596;49.482;11.238;2023-12-20T06:28:03;97981.38;;;2.45;98.67
83635;BME280;73596;49.482;11.238;2023-12-20T06:30:28;97975.94;;;2.54;99.01
83635;BME280;73596;49.482;11.238;2023-12-20T06:32:54;97986.69;;;2.61;98.81
83635;BME280;73596;49.482;11.238;2023-12-20T06:35:20;97988.28;;;2.64;99.13
83635;BME280;73596;49.482;11.238;2023-12-20T06:37:45;97989.44;;;2.56;98.66
83635;BME280;73596;49.482;11.238;2023-12-20T06:40:11;97986.16;;;2.53;98.99
83635;BME280;73596;49.482;11.238;2023-12-20T06:42:36;97988.72;;;2.53;99.15
83635;BME280;73596;49.482;11.238;2023-12-20T06:45:01;97996.88;;;2.61;99.34
83635;BME280;73596;49.482;11.238;2023-12-20T06:47:27;97994.34;;;2.61;99.16
83635;BME280;73596;49.482;11.238;2023-12-20T06:49:52;97997.19;;;2.53;99.28
83635;BME280;73596;49.482;11.238;2023-12-20T06:52:17;97994.59;;;2.55;99.41
83635;BME280;73596;49.482;11.238;2023-12-20T06:54:43;97986.88;;;2.56;99.11
83635;BME280;73596;49.482;11.238;2023-12-20T06:57:08;97989.38;;;2.58;99.30
83635;BME280;73596;49.482;11.238;2023-12-20T06:59:38;97997.09;;;2.56;99.55
83635;BME280;73596;49.482;11.238;2023-12-20T07:02:03;97994.34;;;2.61;99.66
83635;BME280;73596;49.482;11.238;2023-12-20T07:04:30;98007.72;;;2.66;99.45
83635;BME280;73596;49.482;11.238;2023-12-20T07:06:55;98009.94;;;2.75;99.81
83635;BME280;73596;49.482;11.238;2023-12-20T07:09:22;98019.63;;;2.87;100.00
83635;BME280;73596;49.482;11.238;2023-12-20T07:11:48;98029.81;;;2.87;100.00
83635;BME280;73596;49.482;11.238;2023-12-20T07:14:13;98034.09;;;2.87;100.00
83635;BME280;73596;49.482;11.238;2023-12-20T07:16:39;98040.97;;;2.85;100.00
83635;BME280;73596;49.482;11.238;2023-12-20T07:19:05;98040.91;;;2.86;100.00
83635;BME280;73596;49.482;11.238;2023-12-20T07:21:30;98042.44;;;2.90;99.86
83635;BME280;73596;49.482;11.238;2023-12-20T07:23:55;98049.06;;;2.94;100.00
83635;BME280;73596;49.482;11.238;2023-12-20T07:26:21;98052.47;;;2.95;100.00
83635;BME280;73596;49.482;11.238;2023-12-20T07:28:46;98052.25;;;2.99;100.00
83635;BME280;73596;49.482;11.238;2023-12-20T07:31:11;98055.13;;;2.92;99.71
83635;BME280;73596;49.482;11.238;2023-12-20T07:33:37;98056.09;;;2.89;99.71
83635;BME280;73596;49.482;11.238;2023-12-20T07:36:02;98058.84;;;2.85;99.54
83635;BME280;73596;49.482;11.238;2023-12-20T07:38:27;98049.41;;;3.07;99.93
83635;BME280;73596;49.482;11.238;2023-12-20T07:40:53;98049.47;;;3.05;100.00
83635;BME280;73596;49.482;11.238;2023-12-20T07:43:18;98061.31;;;3.06;100.00
83635;BME280;73596;49.482;11.238;2023-12-20T07:45:43;98059.47;;;3.10;99.90
83635;BME280;73596;49.482;11.238;2023-12-20T07:48:09;98056.94;;;3.10;99.85
83635;BME280;73596;49.482;11.238;2023-12-20T07:50:34;98060.34;;;3.09;99.93
83635;BME280;73596;49.482;11.238;2023-12-20T07:52:59;98056.09;;;3.09;99.82
83635;BME280;73596;49.482;11.238;2023-12-20T07:55:26;98068.72;;;3.12;99.98
83635;BME280;73596;49.482;11.238;2023-12-20T07:57:51;98068.66;;;3.14;99.87
83635;BME280;73596;49.482;11.238;2023-12-20T08:00:17;98067.84;;;3.13;100.00
83635;BME280;73596;49.482;11.238;2023-12-20T08:02:42;98065.09;;;3.18;99.63
83635;BME280;73596;49.482;11.238;2023-12-20T08:05:08;98074.56;;;3.16;99.72
83635;BME280;73596;49.482;11.238;2023-12-20T08:07:33;98069.56;;;3.13;99.23
83635;BME280;73596;49.482;11.238;2023-12-20T08:09:58;98070.22;;;3.18;99.96
83635;BME280;73596;49.482;11.238;2023-12-20T08:12:23;98065.94;;;3.18;100.00
83635;BME280;73596;49.482;11.238;2023-12-20T08:14:50;98081.94;;;3.22;99.63
83635;BME280;73596;49.482;11.238;2023-12-20T08:17:16;98080.09;;;3.26;100.00
83635;BME280;73596;49.482;11.238;2023-12-20T08:19:43;98071.53;;;3.27;100.00
83635;BME280;73596;49.482;11.238;2023-12-20T08:22:08;98071.53;;;3.27;99.65
83635;BME280;73596;49.482;11.238;2023-12-20T08:24:33;98065.34;;;3.32;99.99
83635;BME280;73596;49.482;11.238;2023-12-20T08:26:59;98078.09;;;3.32;99.71
83635;BME280;73596;49.482;11.238;2023-12-20T08:29:24;98070.31;;;3.35;100.00
83635;BME280;73596;49.482;11.238;2023-12-20T08:31:53;98076.81;;;3.42;99.85
83635;BME280;73596;49.482;11.238;2023-12-20T08:34:19;98068.41;;;3.40;99.61
83635;BME280;73596;49.482;11.238;2023-12-20T08:36:44;98075.44;;;3.35;100.00
83635;BME280;73596;49.482;11.238;2023-12-20T08:39:09;98074.34;;;3.41;99.81
83635;BME280;73596;49.482;11.238;2023-12-20T08:41:35;98068.16;;;3.46;99.71
83635;BME280;73596;49.482;11.238;2023-12-20T08:44:00;98072.72;;;3.58;99.95
83635;BME280;73596;49.482;11.238;2023-12-20T08:46:25;98069.88;;;3.64;99.67
83635;BME280;73596;49.482;11.238;2023-12-20T08:48:51;98065.56;;;3.66;99.52
83635;BME280;73596;49.482;11.238;2023-12-20T08:51:16;98064.03;;;3.62;99.21
83635;BME280;73596;49.482;11.238;2023-12-20T08:53:41;98063.19;;;3.62;99.40
83635;BME280;73596;49.482;11.238;2023-12-20T08:56:07;98077.84;;;3.58;98.63
83635;BME280;73596;49.482;11.238;2023-12-20T08:58:32;98070.09;;;3.60;98.68
83635;BME280;73596;49.482;11.238;2023-12-20T09:00:58;98068.78;;;3.70;98.39
83635;BME280;73596;49.482;11.238;2023-12-20T09:03:23;98063.75;;;3.68;98.02
83635;BME280;73596;49.482;11.238;2023-12-20T09:05:49;98063.06;;;3.65;97.90
83635;BME280;73596;49.482;11.238;2023-12-20T09:08:14;98065.47;;;3.68;97.89
83635;BME280;73596;49.482;11.238;2023-12-20T09:10:39;98070.66;;;3.66;96.93
83635;BME280;73596;49.482;11.238;2023-12-20T09:13:05;98075.81;;;3.65;97.24
83635;BME280;73596;49.482;11.238;2023-12-20T09:15:30;98081.91;;;3.62;97.02
83635;BME280;73596;49.482;11.238;2023-12-20T09:17:55;98079.84;;;3.70;97.18
83635;BME280;73596;49.482;11.238;2023-12-20T09:20:21;98083.38;;;3.68;96.34
83635;BME280;73596;49.482;11.238;2023-12-20T09:22:48;98082.47;;;3.69;96.14
83635;BME280;73596;49.482;11.238;2023-12-20T09:25:13;98080.88;;;3.66;96.07
83635;BME280;73596;49.482;11.238;2023-12-20T09:27:40;98095.28;;;3.67;96.02
83635;BME280;73596;49.482;11.238;2023-12-20T09:30:06;98085.78;;;3.71;95.73
83635;BME280;73596;49.482;11.238;2023-12-20T09:32:32;98080.47;;;3.75;95.06
83635;BME280;73596;49.482;11.238;2023-12-20T09:34:57;98079.63;;;3.75;94.26
83635;BME280;73596;49.482;11.238;2023-12-20T09:37:25;98078.34;;;3.85;94.11
83635;BME280;73596;49.482;11.238;2023-12-20T09:39:51;98083.31;;;3.88;94.07
83635;BME280;73596;49.482;11.238;2023-12-20T09:42:22;98086.00;;;3.85;94.06
83635;BME280;73596;49.482;11.238;2023-12-20T09:44:49;98091.81;;;3.89;94.23
83635;BME280;73596;49.482;11.238;2023-12-20T09:47:15;98085.03;;;3.88;94.22
83635;BME280;73596;49.482;11.238;2023-12-20T09:49:43;98086.56;;;3.92;94.42
83635;BME280;73596;49.482;11.238;2023-12-20T09:52:09;98093.06;;;3.99;94.28
83635;BME280;73596;49.482;11.238;2023-12-20T09:54:36;98095.28;;;4.06;93.67
83635;BME280;73596;49.482;11.238;2023-12-20T09:57:01;98089.00;;;4.13;92.68
83635;BME280;73596;49.482;11.238;2023-12-20T09:59:26;98093.72;;;4.22;90.75
83635;BME280;73596;49.482;11.238;2023-12-20T10:01:55;98087.81;;;4.20;91.25
83635;BME280;73596;49.482;11.238;2023-12-20T10:04:21;98088.59;;;4.22;90.82
83635;BME280;73596;49.482;11.238;2023-12-20T10:06:46;98099.56;;;4.24;91.06
83635;BME280;73596;49.482;11.238;2023-12-20T10:09:12;98088.78;;;4.18;90.91
83635;BME280;73596;49.482;11.238;2023-12-20T10:11:38;98094.84;;;4.15;90.59
83635;BME280;73596;49.482;11.238;2023-12-20T10:14:05;98088.03;;;4.16;90.36
83635;BME280;73596;49.482;11.238;2023-12-20T10:16:31;98082.56;;;4.23;89.84
83635;BME280;73596;49.482;11.238;2023-12-20T10:18:56;98087.63;;;4.25;88.73
83635;BME280;73596;49.482;11.238;2023-12-20T10:21:22;98087.81;;;4.20;89.38
83635;BME280;73596;49.482;11.238;2023-12-20T10:23:50;98082.69;;;4.20;89.70
83635;BME280;73596;49.482;11.238;2023-12-20T10:26:23;98081.09;;;4.18;87.68
83635;BME280;73596;49.482;11.238;2023-12-20T10:28:54;98075.38;;;4.31;87.50
83635;BME280;73596;49.482;11.238;2023-12-20T10:31:26;98070.47;;;4.27;87.04
83635;BME280;73596;49.482;11.238;2023-12-20T10:33:52;98070.03;;;4.36;86.32
83635;BME280;73596;49.482;11.238;2023-12-20T10:36:17;98065.69;;;4.38;86.05
83635;BME280;73596;49.482;11.238;2023-12-20T10:38:44;98067.63;;;4.33;87.37
83635;BME280;73596;49.482;11.238;2023-12-20T10:41:09;98064.09;;;4.35;87.52
83635;BME280;73596;49.482;11.238;2023-12-20T10:43:36;98067.72;;;4.31;86.91
83635;BME280;73596;49.482;11.238;2023-12-20T10:46:03;98062.16;;;4.40;85.64
83635;BME280;73596;49.482;11.238;2023-12-20T10:48:30;98051.94;;;4.40;86.23
83635;BME280;73596;49.482;11.238;2023-12-20T10:50:56;98055.75;;;4.32;84.84
83635;BME280;73596;49.482;11.238;2023-12-20T10:53:24;98053.88;;;4.35;86.17
83635;BME280;73596;49.482;11.238;2023-12-20T10:55:52;98054.53;;;4.22;86.01
83635;BME280;73596;49.482;11.238;2023-12-20T10:58:20;98042.22;;;4.30;86.06
83635;BME280;73596;49.482;11.238;2023-12-20T11:00:45;98048.56;;;4.21;86.29
83635;BME280;73596;49.482;11.238;2023-12-20T11:03:12;98048.50;;;4.23;86.30
83635;BME280;73596;49.482;11.238;2023-12-20T11:05:49;98044.44;;;4.19;86.96
83635;BME280;73596;49.482;11.238;2023-12-20T11:08:33;98051.34;;;4.17;86.69
83635;BME280;73596;49.482;11.238;2023-12-20T11:11:09;98045.19;;;4.21;87.26
83635;BME280;73596;49.482;11.238;2023-12-20T11:13:43;98042.97;;;4.13;88.14
83635;BME280;73596;49.482;11.238;2023-12-20T11:16:12;98032.91;;;4.10;88.09
83635;BME280;73596;49.482;11.238;2023-12-20T11:18:40;98038.84;;;4.11;88.38
83635;BME280;73596;49.482;11.238;2023-12-20T11:21:05;98034.44;;;4.14;88.66
83635;BME280;73596;49.482;11.238;2023-12-20T11:23:32;98036.91;;;4.16;88.64
83635;BME280;73596;49.482;11.238;2023-12-20T11:25:59;98040.69;;;4.26;87.04
83635;BME280;73596;49.482;11.238;2023-12-20T11:28:26;98031.31;;;4.26;87.02
83635;BME280;73596;49.482;11.238;2023-12-20T11:33:36;98020.38;;;4.23;87.31
83635;BME280;73596;49.482;11.238;2023-12-20T11:36:01;98024.88;;;4.18;86.65
83635;BME280;73596;49.482;11.238;2023-12-20T11:38:28;98023.16;;;4.18;86.76
83635;BME280;73596;49.482;11.238;2023-12-20T11:41:00;98013.06;;;4.15;86.62
83635;BME280;73596;49.482;11.238;2023-12-20T11:43:35;98026.06;;;4.11;87.48
83635;BME280;73596;49.482;11.238;2023-12-20T11:46:04;98022.00;;;4.07;87.28
83635;BME280;73596;49.482;11.238;2023-12-20T11:48:30;98030.91;;;3.98;88.17
83635;BME280;73596;49.482;11.238;2023-12-20T11:50:56;98030.03;;;3.99;87.08
83635;BME280;73596;49.482;11.238;2023-12-20T11:53:22;98012.13;;;3.99;87.45
83635;BME280;73596;49.482;11.238;2023-12-20T11:55:49;98016.53;;;3.96;87.08
83635;BME280;73596;49.482;11.238;2023-12-20T11:58:14;98021.03;;;3.91;87.51
83635;BME280;73596;49.482;11.238;2023-12-20T12:00:41;98025.25;;;3.92;88.07
83635;BME280;73596;49.482;11.238;2023-12-20T12:03:06;98019.56;;;3.85;88.92
83635;BME280;73596;49.482;11.238;2023-12-20T12:05:32;98038.28;;;3.85;88.73
83635;BME280;73596;49.482;11.238;2023-12-20T12:07:58;98034.78;;;3.88;88.72
83635;BME280;73596;49.482;11.238;2023-12-20T12:10:23;98036.63;;;4.03;87.92
83635;BME280;73596;49.482;11.238;2023-12-20T12:12:49;98027.78;;;4.10;87.12
83635;BME280;73596;49.482;11.238;2023-12-20T12:15:14;98026.28;;;4.06;87.35
83635;BME280;73596;49.482;11.238;2023-12-20T12:17:40;98023.28;;;4.15;88.33
83635;BME280;73596;49.482;11.238;2023-12-20T12:20:06;98011.28;;;4.17;88.12
83635;BME280;73596;49.482;11.238;2023-12-20T12:22:31;98019.94;;;4.15;87.05
83635;BME280;73596;49.482;11.238;2023-12-20T12:24:59;98017.63;;;4.27;86.68
83635;BME280;73596;49.482;11.238;2023-12-20T12:27:33;98016.09;;;4.23;86.69
83635;BME280;73596;49.482;11.238;2023-12-20T12:30:04;98014.59;;;4.19;87.62
83635;BME280;73596;49.482;11.238;2023-12-20T12:32:30;98017.22;;;4.18;87.56
83635;BME280;73596;49.482;11.238;2023-12-20T12:34:55;98015.97;;;4.26;87.10
83635;BME280;73596;49.482;11.238;2023-12-20T12:37:20;98006.47;;;4.28;86.08
83635;BME280;73596;49.482;11.238;2023-12-20T12:39:48;98005.47;;;4.32;86.36
83635;BME280;73596;49.482;11.238;2023-12-20T12:42:14;98005.00;;;4.41;85.79
83635;BME280;73596;49.482;11.238;2023-12-20T12:44:39;98001.75;;;4.38;85.75
83635;BME280;73596;49.482;11.238;2023-12-20T12:47:05;97999.63;;;4.47;84.75
83635;BME280;73596;49.482;11.238;2023-12-20T12:49:31;97995.53;;;4.43;85.45
83635;BME280;73596;49.482;11.238;2023-12-20T12:51:57;97984.78;;;4.37;85.13
83635;BME280;73596;49.482;11.238;2023-12-20T12:54:23;97989.66;;;4.41;85.14
83635;BME280;73596;49.482;11.238;2023-12-20T12:56:49;98000.50;;;4.46;85.49